sensor_id;sensor_type;location;lat;lon;timestamp;temperature;humidity
28520;DHT22;15732;48.534;20.382;2022-07-01T00:01:51;24.50;91.90
28520;DHT22;15732;48.534;20.382;2022-07-01T00:04:18;24.40;92.10
28520;DHT22;15732;48.534;20.382;2022-07-01T00:06:50;24.20;92.30
28520;DHT22;15732;48.534;20.382;2022-07-01T00:09:17;24.00;92.30
28520;DHT22;15732;48.534;20.382;2022-07-01T00:11:44;24.10;92.50
28520;DHT22;15732;48.534;20.382;2022-07-01T00:14:11;24.00;92.70
28520;DHT22;15732;48.534;20.382;2022-07-01T00:16:43;23.80;92.90
28520;DHT22;15732;48.534;20.382;2022-07-01T00:19:10;23.80;93.30
28520;DHT22;15732;48.534;20.382;2022-07-01T00:21:38;23.80;93.40
28520;DHT22;15732;48.534;20.382;2022-07-01T00:24:05;23.80;93.20
28520;DHT22;15732;48.534;20.382;2022-07-01T00:26:33;23.80;93.10
28520;DHT22;15732;48.534;20.382;2022-07-01T00:29:00;23.90;93.00
28520;DHT22;15732;48.534;20.382;2022-07-01T00:31:28;23.90;93.40
28520;DHT22;15732;48.534;20.382;2022-07-01T00:33:59;23.80;93.70
28520;DHT22;15732;48.534;20.382;2022-07-01T00:36:27;23.70;93.60
28520;DHT22;15732;48.534;20.382;2022-07-01T00:38:54;23.80;93.40
28520;DHT22;15732;48.534;20.382;2022-07-01T00:41:21;23.90;93.50
28520;DHT22;15732;48.534;20.382;2022-07-01T00:43:52;23.80;93.70
28520;DHT22;15732;48.534;20.382;2022-07-01T00:46:20;23.80;93.50
28520;DHT22;15732;48.534;20.382;2022-07-01T00:48:47;23.80;93.40
28520;DHT22;15732;48.534;20.382;2022-07-01T00:51:16;23.90;93.40
28520;DHT22;15732;48.534;20.382;2022-07-01T00:53:44;24.00;93.30
28520;DHT22;15732;48.534;20.382;2022-07-01T00:56:15;24.00;93.40
28520;DHT22;15732;48.534;20.382;2022-07-01T00:58:43;23.90;93.60
28520;DHT22;15732;48.534;20.382;2022-07-01T01:01:10;23.50;93.90
28520;DHT22;15732;48.534;20.382;2022-07-01T01:03:42;23.50;93.90
28520;DHT22;15732;48.534;20.382;2022-07-01T01:06:13;23.50;94.30
28520;DHT22;15732;48.534;20.382;2022-07-01T01:08:41;23.50;94.50
28520;DHT22;15732;48.534;20.382;2022-07-01T01:11:12;23.60;94.10
28520;DHT22;15732;48.534;20.382;2022-07-01T01:13:40;23.70;94.00
28520;DHT22;15732;48.534;20.382;2022-07-01T01:16:07;23.80;93.80
28520;DHT22;15732;48.534;20.382;2022-07-01T01:18:38;23.70;94.10
28520;DHT22;15732;48.534;20.382;2022-07-01T01:21:05;23.50;94.30
28520;DHT22;15732;48.534;20.382;2022-07-01T01:23:33;23.30;94.60
28520;DHT22;15732;48.534;20.382;2022-07-01T01:26:14;23.30;94.60
28520;DHT22;15732;48.534;20.382;2022-07-01T01:28:45;23.40;94.50
28520;DHT22;15732;48.534;20.382;2022-07-01T01:31:13;23.10;95.20
28520;DHT22;15732;48.534;20.382;2022-07-01T01:33:40;23.00;95.40
28520;DHT22;15732;48.534;20.382;2022-07-01T01:36:08;22.90;95.40
28520;DHT22;15732;48.534;20.382;2022-07-01T01:38:35;23.00;95.50
28520;DHT22;15732;48.534;20.382;2022-07-01T01:41:03;22.90;95.50
28520;DHT22;15732;48.534;20.382;2022-07-01T01:43:31;22.90;95.80
28520;DHT22;15732;48.534;20.382;2022-07-01T01:46:03;22.90;95.60
28520;DHT22;15732;48.534;20.382;2022-07-01T01:48:34;22.80;96.00
28520;DHT22;15732;48.534;20.382;2022-07-01T01:51:01;22.70;96.30
28520;DHT22;15732;48.534;20.382;2022-07-01T01:53:29;22.40;96.70
28520;DHT22;15732;48.534;20.382;2022-07-01T01:55:56;22.30;96.70
28520;DHT22;15732;48.534;20.382;2022-07-01T01:58:24;22.20;97.40
28520;DHT22;15732;48.534;20.382;2022-07-01T02:00:52;22.20;97.20
28520;DHT22;15732;48.534;20.382;2022-07-01T02:03:20;22.20;97.00
28520;DHT22;15732;48.534;20.382;2022-07-01T02:05:47;22.30;97.10
28520;DHT22;15732;48.534;20.382;2022-07-01T02:08:15;22.20;97.50
28520;DHT22;15732;48.534;20.382;2022-07-01T02:10:42;22.00;97.90
28520;DHT22;15732;48.534;20.382;2022-07-01T02:13:09;22.00;97.80
28520;DHT22;15732;48.534;20.382;2022-07-01T02:15:40;21.80;98.50
28520;DHT22;15732;48.534;20.382;2022-07-01T02:18:08;21.50;98.90
28520;DHT22;15732;48.534;20.382;2022-07-01T02:20:35;21.50;99.10
28520;DHT22;15732;48.534;20.382;2022-07-01T02:23:02;21.50;99.20
28520;DHT22;15732;48.534;20.382;2022-07-01T02:25:29;21.60;98.90
28520;DHT22;15732;48.534;20.382;2022-07-01T02:27:57;21.70;98.80
28520;DHT22;15732;48.534;20.382;2022-07-01T02:30:25;21.70;98.80
28520;DHT22;15732;48.534;20.382;2022-07-01T02:32:53;21.70;99.20
28520;DHT22;15732;48.534;20.382;2022-07-01T02:35:20;21.60;99.80
28520;DHT22;15732;48.534;20.382;2022-07-01T02:37:48;21.40;99.70
28520;DHT22;15732;48.534;20.382;2022-07-01T02:40:19;21.40;99.60
28520;DHT22;15732;48.534;20.382;2022-07-01T02:42:50;21.40;99.70
28520;DHT22;15732;48.534;20.382;2022-07-01T02:45:18;21.40;99.80
28520;DHT22;15732;48.534;20.382;2022-07-01T02:47:45;21.40;99.70
28520;DHT22;15732;48.534;20.382;2022-07-01T02:50:14;21.50;99.80
28520;DHT22;15732;48.534;20.382;2022-07-01T02:52:45;21.40;99.80
28520;DHT22;15732;48.534;20.382;2022-07-01T02:55:17;21.50;99.90
28520;DHT22;15732;48.534;20.382;2022-07-01T02:57:44;21.40;99.90
28520;DHT22;15732;48.534;20.382;2022-07-01T03:00:13;21.40;99.90
28520;DHT22;15732;48.534;20.382;2022-07-01T03:02:40;21.40;99.90
28520;DHT22;15732;48.534;20.382;2022-07-01T03:05:08;21.40;99.90
28520;DHT22;15732;48.534;20.382;2022-07-01T03:07:38;21.40;99.90
28520;DHT22;15732;48.534;20.382;2022-07-01T03:10:05;21.40;99.90
28520;DHT22;15732;48.534;20.382;2022-07-01T03:12:33;21.40;99.90
28520;DHT22;15732;48.534;20.382;2022-07-01T03:15:10;21.20;99.90
28520;DHT22;15732;48.534;20.382;2022-07-01T03:17:44;21.30;99.90
28520;DHT22;15732;48.534;20.382;2022-07-01T03:20:13;21.10;99.90
28520;DHT22;15732;48.534;20.382;2022-07-01T03:22:42;21.10;99.90
28520;DHT22;15732;48.534;20.382;2022-07-01T03:25:09;21.00;99.90
28520;DHT22;15732;48.534;20.382;2022-07-01T03:27:37;21.10;99.90
28520;DHT22;15732;48.534;20.382;2022-07-01T03:30:05;21.00;99.90
28520;DHT22;15732;48.534;20.382;2022-07-01T03:32:32;21.00;99.90
28520;DHT22;15732;48.534;20.382;2022-07-01T03:35:04;21.10;99.90
28520;DHT22;15732;48.534;20.382;2022-07-01T03:37:51;21.20;99.90
28520;DHT22;15732;48.534;20.382;2022-07-01T03:40:19;21.20;99.90
28520;DHT22;15732;48.534;20.382;2022-07-01T03:42:46;21.40;99.90
28520;DHT22;15732;48.534;20.382;2022-07-01T03:45:14;21.40;99.90
28520;DHT22;15732;48.534;20.382;2022-07-01T03:47:48;21.40;99.90
28520;DHT22;15732;48.534;20.382;2022-07-01T03:50:20;21.40;99.90
28520;DHT22;15732;48.534;20.382;2022-07-01T03:53:02;21.50;99.90
28520;DHT22;15732;48.534;20.382;2022-07-01T03:55:48;21.60;99.90
28520;DHT22;15732;48.534;20.382;2022-07-01T03:58:15;21.70;99.90
28520;DHT22;15732;48.534;20.382;2022-07-01T04:00:42;21.70;99.90
28520;DHT22;15732;48.534;20.382;2022-07-01T04:03:09;21.70;99.90
28520;DHT22;15732;48.534;20.382;2022-07-01T04:05:37;21.70;99.90
28520;DHT22;15732;48.534;20.382;2022-07-01T04:08:05;21.60;99.90
28520;DHT22;15732;48.534;20.382;2022-07-01T04:10:33;21.70;99.90
28520;DHT22;15732;48.534;20.382;2022-07-01T04:13:01;21.80;99.90
28520;DHT22;15732;48.534;20.382;2022-07-01T04:15:33;21.90;99.90
28520;DHT22;15732;48.534;20.382;2022-07-01T04:18:01;22.00;99.90
28520;DHT22;15732;48.534;20.382;2022-07-01T04:20:32;22.10;99.90
28520;DHT22;15732;48.534;20.382;2022-07-01T04:23:03;22.30;99.90
28520;DHT22;15732;48.534;20.382;2022-07-01T04:25:30;22.30;99.90
28520;DHT22;15732;48.534;20.382;2022-07-01T04:27:58;22.40;99.90
28520;DHT22;15732;48.534;20.382;2022-07-01T04:30:27;22.50;99.90
28520;DHT22;15732;48.534;20.382;2022-07-01T04:32:55;22.50;99.90
28520;DHT22;15732;48.534;20.382;2022-07-01T04:35:22;22.60;99.90
28520;DHT22;15732;48.534;20.382;2022-07-01T04:37:49;22.60;99.90
28520;DHT22;15732;48.534;20.382;2022-07-01T04:40:16;22.40;99.90
28520;DHT22;15732;48.534;20.382;2022-07-01T04:42:44;22.40;99.90
28520;DHT22;15732;48.534;20.382;2022-07-01T04:45:11;22.40;99.90
28520;DHT22;15732;48.534;20.382;2022-07-01T04:47:39;22.30;99.90
28520;DHT22;15732;48.534;20.382;2022-07-01T04:50:06;22.20;99.90
28520;DHT22;15732;48.534;20.382;2022-07-01T04:52:35;22.30;99.90
28520;DHT22;15732;48.534;20.382;2022-07-01T04:55:02;22.30;99.90
28520;DHT22;15732;48.534;20.382;2022-07-01T04:57:30;22.40;99.90
28520;DHT22;15732;48.534;20.382;2022-07-01T04:59:58;22.50;99.90
28520;DHT22;15732;48.534;20.382;2022-07-01T05:02:29;22.60;99.90
28520;DHT22;15732;48.534;20.382;2022-07-01T05:04:56;22.70;99.90
28520;DHT22;15732;48.534;20.382;2022-07-01T05:07:24;22.70;99.90
28520;DHT22;15732;48.534;20.382;2022-07-01T05:09:57;22.90;99.90
28520;DHT22;15732;48.534;20.382;2022-07-01T05:12:25;23.00;99.90
28520;DHT22;15732;48.534;20.382;2022-07-01T05:14:52;23.20;99.90
28520;DHT22;15732;48.534;20.382;2022-07-01T05:17:19;23.30;99.90
28520;DHT22;15732;48.534;20.382;2022-07-01T05:20:09;23.50;99.90
28520;DHT22;15732;48.534;20.382;2022-07-01T05:22:56;23.70;99.90
28520;DHT22;15732;48.534;20.382;2022-07-01T05:25:23;23.90;99.90
28520;DHT22;15732;48.534;20.382;2022-07-01T05:27:54;24.00;99.90
28520;DHT22;15732;48.534;20.382;2022-07-01T05:30:22;24.20;99.90
28520;DHT22;15732;48.534;20.382;2022-07-01T05:32:50;24.30;99.90
28520;DHT22;15732;48.534;20.382;2022-07-01T05:35:17;24.20;99.90
28520;DHT22;15732;48.534;20.382;2022-07-01T05:37:45;24.40;99.90
28520;DHT22;15732;48.534;20.382;2022-07-01T05:40:12;24.60;99.90
28520;DHT22;15732;48.534;20.382;2022-07-01T05:42:40;24.70;99.90
28520;DHT22;15732;48.534;20.382;2022-07-01T05:45:08;24.80;99.90
28520;DHT22;15732;48.534;20.382;2022-07-01T05:47:36;24.90;99.90
28520;DHT22;15732;48.534;20.382;2022-07-01T05:50:04;25.00;99.90
28520;DHT22;15732;48.534;20.382;2022-07-01T05:52:33;25.10;99.50
28520;DHT22;15732;48.534;20.382;2022-07-01T05:55:00;25.00;99.50
28520;DHT22;15732;48.534;20.382;2022-07-01T05:57:31;25.10;99.50
28520;DHT22;15732;48.534;20.382;2022-07-01T05:59:59;25.10;99.30
28520;DHT22;15732;48.534;20.382;2022-07-01T06:02:26;25.20;99.50
28520;DHT22;15732;48.534;20.382;2022-07-01T06:04:54;25.40;99.50
28520;DHT22;15732;48.534;20.382;2022-07-01T06:07:21;25.50;99.40
28520;DHT22;15732;48.534;20.382;2022-07-01T06:09:49;25.60;99.30
28520;DHT22;15732;48.534;20.382;2022-07-01T06:12:20;25.80;98.90
28520;DHT22;15732;48.534;20.382;2022-07-01T06:14:47;25.80;98.70
28520;DHT22;15732;48.534;20.382;2022-07-01T06:17:15;26.00;98.90
28520;DHT22;15732;48.534;20.382;2022-07-01T06:19:47;26.00;98.60
28520;DHT22;15732;48.534;20.382;2022-07-01T06:22:14;26.30;98.60
28520;DHT22;15732;48.534;20.382;2022-07-01T06:24:44;26.40;98.20
28520;DHT22;15732;48.534;20.382;2022-07-01T06:27:12;26.50;97.80
28520;DHT22;15732;48.534;20.382;2022-07-01T06:29:39;26.70;97.70
28520;DHT22;15732;48.534;20.382;2022-07-01T06:32:10;26.80;97.70
28520;DHT22;15732;48.534;20.382;2022-07-01T06:34:38;27.00;97.90
28520;DHT22;15732;48.534;20.382;2022-07-01T06:37:06;27.20;97.70
28520;DHT22;15732;48.534;20.382;2022-07-01T06:39:33;27.30;97.60
28520;DHT22;15732;48.534;20.382;2022-07-01T06:42:00;27.50;97.10
28520;DHT22;15732;48.534;20.382;2022-07-01T06:44:32;27.60;96.80
28520;DHT22;15732;48.534;20.382;2022-07-01T06:46:59;27.70;96.90
28520;DHT22;15732;48.534;20.382;2022-07-01T06:49:27;27.80;96.80
28520;DHT22;15732;48.534;20.382;2022-07-01T06:51:54;28.00;97.00
28520;DHT22;15732;48.534;20.382;2022-07-01T06:54:21;28.10;96.50
28520;DHT22;15732;48.534;20.382;2022-07-01T06:56:49;28.20;96.50
28520;DHT22;15732;48.534;20.382;2022-07-01T06:59:16;28.30;96.50
28520;DHT22;15732;48.534;20.382;2022-07-01T07:01:48;28.40;96.90
28520;DHT22;15732;48.534;20.382;2022-07-01T07:04:16;28.60;97.10
28520;DHT22;15732;48.534;20.382;2022-07-01T07:06:43;28.80;97.10
28520;DHT22;15732;48.534;20.382;2022-07-01T07:09:14;28.90;97.20
28520;DHT22;15732;48.534;20.382;2022-07-01T07:11:41;29.10;97.20
28520;DHT22;15732;48.534;20.382;2022-07-01T07:14:08;29.20;97.00
28520;DHT22;15732;48.534;20.382;2022-07-01T07:16:36;29.40;97.00
28520;DHT22;15732;48.534;20.382;2022-07-01T07:19:07;29.50;96.80
28520;DHT22;15732;48.534;20.382;2022-07-01T07:21:34;29.70;96.60
28520;DHT22;15732;48.534;20.382;2022-07-01T07:24:02;29.80;96.40
28520;DHT22;15732;48.534;20.382;2022-07-01T07:26:29;29.90;96.40
28520;DHT22;15732;48.534;20.382;2022-07-01T07:28:56;30.00;96.30
28520;DHT22;15732;48.534;20.382;2022-07-01T07:31:23;30.20;96.10
28520;DHT22;15732;48.534;20.382;2022-07-01T07:33:50;30.30;95.80
28520;DHT22;15732;48.534;20.382;2022-07-01T07:36:18;30.50;95.40
28520;DHT22;15732;48.534;20.382;2022-07-01T07:38:45;30.50;95.20
28520;DHT22;15732;48.534;20.382;2022-07-01T07:41:12;30.60;95.00
28520;DHT22;15732;48.534;20.382;2022-07-01T07:43:40;30.70;94.60
28520;DHT22;15732;48.534;20.382;2022-07-01T07:46:07;30.80;94.30
28520;DHT22;15732;48.534;20.382;2022-07-01T07:48:39;30.80;94.10
28520;DHT22;15732;48.534;20.382;2022-07-01T07:51:12;30.90;93.90
28520;DHT22;15732;48.534;20.382;2022-07-01T07:53:43;30.90;93.60
28520;DHT22;15732;48.534;20.382;2022-07-01T07:56:14;31.00;93.60
28520;DHT22;15732;48.534;20.382;2022-07-01T07:58:42;31.10;93.60
28520;DHT22;15732;48.534;20.382;2022-07-01T08:01:10;31.10;93.30
28520;DHT22;15732;48.534;20.382;2022-07-01T08:03:42;31.10;93.20
28520;DHT22;15732;48.534;20.382;2022-07-01T08:06:12;31.20;93.10
28520;DHT22;15732;48.534;20.382;2022-07-01T08:08:39;31.30;93.00
28520;DHT22;15732;48.534;20.382;2022-07-01T08:11:06;31.30;93.10
28520;DHT22;15732;48.534;20.382;2022-07-01T08:13:32;31.40;93.00
28520;DHT22;15732;48.534;20.382;2022-07-01T08:16:00;31.40;92.90
28520;DHT22;15732;48.534;20.382;2022-07-01T08:18:27;31.40;92.90
28520;DHT22;15732;48.534;20.382;2022-07-01T08:20:55;31.50;92.90
28520;DHT22;15732;48.534;20.382;2022-07-01T08:23:22;31.50;92.80
28520;DHT22;15732;48.534;20.382;2022-07-01T08:25:53;31.50;92.90
28520;DHT22;15732;48.534;20.382;2022-07-01T08:28:21;31.60;93.00
28520;DHT22;15732;48.534;20.382;2022-07-01T08:30:48;31.60;93.20
28520;DHT22;15732;48.534;20.382;2022-07-01T08:33:15;31.70;93.00
28520;DHT22;15732;48.534;20.382;2022-07-01T08:35:43;31.70;93.20
28520;DHT22;15732;48.534;20.382;2022-07-01T08:38:10;31.70;93.30
28520;DHT22;15732;48.534;20.382;2022-07-01T08:40:37;31.80;92.80
28520;DHT22;15732;48.534;20.382;2022-07-01T08:43:06;31.80;92.90
28520;DHT22;15732;48.534;20.382;2022-07-01T08:45:35;31.90;92.80
28520;DHT22;15732;48.534;20.382;2022-07-01T08:48:02;31.90;92.70
28520;DHT22;15732;48.534;20.382;2022-07-01T08:50:39;32.00;92.80
28520;DHT22;15732;48.534;20.382;2022-07-01T08:53:12;32.00;92.90
28520;DHT22;15732;48.534;20.382;2022-07-01T08:55:40;32.00;92.70
28520;DHT22;15732;48.534;20.382;2022-07-01T08:58:28;32.10;93.00
28520;DHT22;15732;48.534;20.382;2022-07-01T09:01:19;32.10;92.00
28520;DHT22;15732;48.534;20.382;2022-07-01T09:03:51;32.10;92.30
28520;DHT22;15732;48.534;20.382;2022-07-01T09:06:27;32.00;92.10
28520;DHT22;15732;48.534;20.382;2022-07-01T09:08:56;32.00;91.90
28520;DHT22;15732;48.534;20.382;2022-07-01T09:11:47;32.00;92.20
28520;DHT22;15732;48.534;20.382;2022-07-01T09:14:27;32.10;91.20
28520;DHT22;15732;48.534;20.382;2022-07-01T09:17:04;32.10;91.60
28520;DHT22;15732;48.534;20.382;2022-07-01T09:19:34;32.20;91.60
28520;DHT22;15732;48.534;20.382;2022-07-01T09:22:03;32.20;91.60
28520;DHT22;15732;48.534;20.382;2022-07-01T09:24:40;32.20;91.60
28520;DHT22;15732;48.534;20.382;2022-07-01T09:27:25;32.20;91.50
28520;DHT22;15732;48.534;20.382;2022-07-01T09:29:53;32.30;91.40
28520;DHT22;15732;48.534;20.382;2022-07-01T09:32:21;32.30;91.20
28520;DHT22;15732;48.534;20.382;2022-07-01T09:34:51;32.30;91.30
28520;DHT22;15732;48.534;20.382;2022-07-01T09:37:19;32.40;91.10
28520;DHT22;15732;48.534;20.382;2022-07-01T09:39:52;32.40;91.30
28520;DHT22;15732;48.534;20.382;2022-07-01T09:42:20;32.40;91.20
28520;DHT22;15732;48.534;20.382;2022-07-01T09:45:00;32.50;90.90
28520;DHT22;15732;48.534;20.382;2022-07-01T09:47:48;32.50;90.10
28520;DHT22;15732;48.534;20.382;2022-07-01T09:50:19;32.50;90.10
28520;DHT22;15732;48.534;20.382;2022-07-01T09:52:50;32.60;90.30
28520;DHT22;15732;48.534;20.382;2022-07-01T09:55:18;32.60;90.10
28520;DHT22;15732;48.534;20.382;2022-07-01T09:57:45;32.60;90.20
28520;DHT22;15732;48.534;20.382;2022-07-01T10:00:14;32.70;90.10
28520;DHT22;15732;48.534;20.382;2022-07-01T10:02:42;32.80;89.40
28520;DHT22;15732;48.534;20.382;2022-07-01T10:05:14;32.80;89.70
28520;DHT22;15732;48.534;20.382;2022-07-01T10:07:44;32.80;88.90
28520;DHT22;15732;48.534;20.382;2022-07-01T10:10:41;32.80;89.20
28520;DHT22;15732;48.534;20.382;2022-07-01T10:13:13;32.80;88.10
28520;DHT22;15732;48.534;20.382;2022-07-01T10:15:47;32.80;87.50
28520;DHT22;15732;48.534;20.382;2022-07-01T10:18:22;32.80;88.00
28520;DHT22;15732;48.534;20.382;2022-07-01T10:20:50;32.80;87.40
28520;DHT22;15732;48.534;20.382;2022-07-01T10:23:19;32.80;88.00
28520;DHT22;15732;48.534;20.382;2022-07-01T10:25:48;32.90;88.20
28520;DHT22;15732;48.534;20.382;2022-07-01T10:28:26;32.90;88.40
28520;DHT22;15732;48.534;20.382;2022-07-01T10:31:01;32.90;88.10
28520;DHT22;15732;48.534;20.382;2022-07-01T10:36:09;33.00;88.20
28520;DHT22;15732;48.534;20.382;2022-07-01T10:41:59;33.00;85.70
28520;DHT22;15732;48.534;20.382;2022-07-01T10:44:27;33.00;86.30
28520;DHT22;15732;48.534;20.382;2022-07-01T10:47:01;33.10;87.40
28520;DHT22;15732;48.534;20.382;2022-07-01T10:52:07;33.10;86.40
28520;DHT22;15732;48.534;20.382;2022-07-01T11:02:28;33.20;86.80
28520;DHT22;15732;48.534;20.382;2022-07-01T11:05:00;33.30;86.60
28520;DHT22;15732;48.534;20.382;2022-07-01T11:07:30;33.30;86.10
28520;DHT22;15732;48.534;20.382;2022-07-01T11:09:58;33.30;86.00
28520;DHT22;15732;48.534;20.382;2022-07-01T11:12:28;33.30;85.90
28520;DHT22;15732;48.534;20.382;2022-07-01T11:14:56;33.30;85.70
28520;DHT22;15732;48.534;20.382;2022-07-01T11:17:25;33.30;84.50
28520;DHT22;15732;48.534;20.382;2022-07-01T11:19:54;33.30;84.90
28520;DHT22;15732;48.534;20.382;2022-07-01T11:22:29;33.30;84.80
28520;DHT22;15732;48.534;20.382;2022-07-01T11:24:58;33.20;84.90
28520;DHT22;15732;48.534;20.382;2022-07-01T11:27:26;33.20;84.60
28520;DHT22;15732;48.534;20.382;2022-07-01T11:29:55;33.20;84.00
28520;DHT22;15732;48.534;20.382;2022-07-01T11:32:26;33.20;84.40
28520;DHT22;15732;48.534;20.382;2022-07-01T11:34:56;33.20;84.40
28520;DHT22;15732;48.534;20.382;2022-07-01T11:37:29;33.20;84.20
28520;DHT22;15732;48.534;20.382;2022-07-01T11:40:17;33.10;84.10
28520;DHT22;15732;48.534;20.382;2022-07-01T11:42:46;33.10;83.50
28520;DHT22;15732;48.534;20.382;2022-07-01T11:45:23;33.10;83.30
28520;DHT22;15732;48.534;20.382;2022-07-01T11:47:53;33.20;82.70
28520;DHT22;15732;48.534;20.382;2022-07-01T11:50:25;33.20;82.50
28520;DHT22;15732;48.534;20.382;2022-07-01T11:52:54;33.20;82.80
28520;DHT22;15732;48.534;20.382;2022-07-01T11:55:26;33.30;82.70
28520;DHT22;15732;48.534;20.382;2022-07-01T11:57:55;33.30;82.50
28520;DHT22;15732;48.534;20.382;2022-07-01T12:00:25;33.30;82.40
28520;DHT22;15732;48.534;20.382;2022-07-01T12:02:59;33.30;81.60
28520;DHT22;15732;48.534;20.382;2022-07-01T12:05:26;33.30;81.90
28520;DHT22;15732;48.534;20.382;2022-07-01T12:07:54;33.30;81.90
28520;DHT22;15732;48.534;20.382;2022-07-01T12:10:26;33.30;82.10
28520;DHT22;15732;48.534;20.382;2022-07-01T12:12:58;33.30;82.10
28520;DHT22;15732;48.534;20.382;2022-07-01T12:15:25;33.30;81.90
28520;DHT22;15732;48.534;20.382;2022-07-01T12:18:05;33.30;81.50
28520;DHT22;15732;48.534;20.382;2022-07-01T12:20:33;33.30;79.40
28520;DHT22;15732;48.534;20.382;2022-07-01T12:23:16;33.30;81.10
28520;DHT22;15732;48.534;20.382;2022-07-01T12:25:51;33.30;80.30
28520;DHT22;15732;48.534;20.382;2022-07-01T12:28:39;33.30;80.80
28520;DHT22;15732;48.534;20.382;2022-07-01T12:31:10;33.30;81.00
28520;DHT22;15732;48.534;20.382;2022-07-01T12:33:39;33.30;81.10
28520;DHT22;15732;48.534;20.382;2022-07-01T12:36:07;33.30;81.10
28520;DHT22;15732;48.534;20.382;2022-07-01T12:38:35;33.30;81.30
28520;DHT22;15732;48.534;20.382;2022-07-01T12:41:02;33.40;81.20
28520;DHT22;15732;48.534;20.382;2022-07-01T12:43:49;33.40;81.30
28520;DHT22;15732;48.534;20.382;2022-07-01T12:46:29;33.40;81.50
28520;DHT22;15732;48.534;20.382;2022-07-01T12:48:57;33.50;81.20
28520;DHT22;15732;48.534;20.382;2022-07-01T12:51:30;33.50;81.50
28520;DHT22;15732;48.534;20.382;2022-07-01T12:53:58;33.50;80.40
28520;DHT22;15732;48.534;20.382;2022-07-01T12:56:29;33.60;80.10
28520;DHT22;15732;48.534;20.382;2022-07-01T12:58:56;33.60;80.50
28520;DHT22;15732;48.534;20.382;2022-07-01T13:01:24;33.60;80.40
28520;DHT22;15732;48.534;20.382;2022-07-01T13:03:55;33.50;80.00
28520;DHT22;15732;48.534;20.382;2022-07-01T13:06:22;33.50;80.60
28520;DHT22;15732;48.534;20.382;2022-07-01T13:08:50;33.50;80.80
28520;DHT22;15732;48.534;20.382;2022-07-01T13:11:21;33.50;81.00
28520;DHT22;15732;48.534;20.382;2022-07-01T13:13:53;33.60;81.20
28520;DHT22;15732;48.534;20.382;2022-07-01T13:16:20;33.60;81.40
28520;DHT22;15732;48.534;20.382;2022-07-01T13:18:47;33.60;81.10
28520;DHT22;15732;48.534;20.382;2022-07-01T13:21:15;33.70;80.00
28520;DHT22;15732;48.534;20.382;2022-07-01T13:23:46;33.70;80.50
28520;DHT22;15732;48.534;20.382;2022-07-01T13:26:13;33.70;80.40
28520;DHT22;15732;48.534;20.382;2022-07-01T13:28:40;33.80;80.20
28520;DHT22;15732;48.534;20.382;2022-07-01T13:31:08;33.70;78.40
28520;DHT22;15732;48.534;20.382;2022-07-01T13:33:35;33.70;80.30
28520;DHT22;15732;48.534;20.382;2022-07-01T13:36:03;33.70;80.40
28520;DHT22;15732;48.534;20.382;2022-07-01T13:38:30;33.80;80.60
28520;DHT22;15732;48.534;20.382;2022-07-01T13:40:57;33.80;80.60
28520;DHT22;15732;48.534;20.382;2022-07-01T13:43:24;33.80;80.60
28520;DHT22;15732;48.534;20.382;2022-07-01T13:45:52;33.80;80.00
28520;DHT22;15732;48.534;20.382;2022-07-01T13:48:19;33.90;80.50
28520;DHT22;15732;48.534;20.382;2022-07-01T13:50:50;33.90;79.10
28520;DHT22;15732;48.534;20.382;2022-07-01T13:53:17;33.90;80.30
28520;DHT22;15732;48.534;20.382;2022-07-01T13:55:45;33.90;80.00
28520;DHT22;15732;48.534;20.382;2022-07-01T13:58:16;33.90;80.10
28520;DHT22;15732;48.534;20.382;2022-07-01T14:00:43;33.90;80.30
28520;DHT22;15732;48.534;20.382;2022-07-01T14:03:10;33.90;80.50
28520;DHT22;15732;48.534;20.382;2022-07-01T14:05:37;33.90;80.70
28520;DHT22;15732;48.534;20.382;2022-07-01T14:08:04;33.90;80.10
28520;DHT22;15732;48.534;20.382;2022-07-01T14:10:31;33.90;79.90
28520;DHT22;15732;48.534;20.382;2022-07-01T14:13:05;33.80;80.40
28520;DHT22;15732;48.534;20.382;2022-07-01T14:15:32;33.80;80.40
28520;DHT22;15732;48.534;20.382;2022-07-01T14:18:02;33.80;80.10
28520;DHT22;15732;48.534;20.382;2022-07-01T14:20:30;33.80;79.60
28520;DHT22;15732;48.534;20.382;2022-07-01T14:23:01;33.80;80.30
28520;DHT22;15732;48.534;20.382;2022-07-01T14:25:28;33.80;79.60
28520;DHT22;15732;48.534;20.382;2022-07-01T14:27:56;33.70;79.50
28520;DHT22;15732;48.534;20.382;2022-07-01T14:30:23;33.70;79.60
28520;DHT22;15732;48.534;20.382;2022-07-01T14:32:51;33.70;79.80
28520;DHT22;15732;48.534;20.382;2022-07-01T14:35:18;33.70;79.70
28520;DHT22;15732;48.534;20.382;2022-07-01T14:37:45;33.80;79.80
28520;DHT22;15732;48.534;20.382;2022-07-01T14:40:13;33.70;79.70
28520;DHT22;15732;48.534;20.382;2022-07-01T14:42:40;33.70;79.20
28520;DHT22;15732;48.534;20.382;2022-07-01T14:45:09;33.70;79.20
28520;DHT22;15732;48.534;20.382;2022-07-01T14:47:39;33.70;79.50
28520;DHT22;15732;48.534;20.382;2022-07-01T14:50:07;33.70;79.00
28520;DHT22;15732;48.534;20.382;2022-07-01T14:52:35;33.80;79.60
28520;DHT22;15732;48.534;20.382;2022-07-01T14:55:02;33.80;79.50
28520;DHT22;15732;48.534;20.382;2022-07-01T14:57:29;33.80;79.50
28520;DHT22;15732;48.534;20.382;2022-07-01T14:59:56;33.80;79.50
28520;DHT22;15732;48.534;20.382;2022-07-01T15:02:24;33.80;79.20
28520;DHT22;15732;48.534;20.382;2022-07-01T15:04:51;33.80;79.40
28520;DHT22;15732;48.534;20.382;2022-07-01T15:07:19;33.80;79.10
28520;DHT22;15732;48.534;20.382;2022-07-01T15:09:46;33.80;79.00
28520;DHT22;15732;48.534;20.382;2022-07-01T15:12:14;33.80;79.20
28520;DHT22;15732;48.534;20.382;2022-07-01T15:14:45;33.70;79.30
28520;DHT22;15732;48.534;20.382;2022-07-01T15:17:12;33.70;79.30
28520;DHT22;15732;48.534;20.382;2022-07-01T15:19:42;33.70;79.20
28520;DHT22;15732;48.534;20.382;2022-07-01T15:22:09;33.60;79.10
28520;DHT22;15732;48.534;20.382;2022-07-01T15:24:41;33.60;78.70
28520;DHT22;15732;48.534;20.382;2022-07-01T15:27:13;33.60;78.90
28520;DHT22;15732;48.534;20.382;2022-07-01T15:29:44;33.60;79.20
28520;DHT22;15732;48.534;20.382;2022-07-01T15:32:11;33.60;79.50
28520;DHT22;15732;48.534;20.382;2022-07-01T15:34:39;33.50;79.50
28520;DHT22;15732;48.534;20.382;2022-07-01T15:37:05;33.50;79.70
28520;DHT22;15732;48.534;20.382;2022-07-01T15:39:38;33.50;79.70
28520;DHT22;15732;48.534;20.382;2022-07-01T15:42:06;33.50;79.70
28520;DHT22;15732;48.534;20.382;2022-07-01T15:44:33;33.50;79.80
28520;DHT22;15732;48.534;20.382;2022-07-01T15:47:00;33.40;79.70